Time;durP1;ratioP1;P1;durP2;ratioP2;P2;SDS_P1;SDS_P2;PMS_P1;PMS_P2;Temp;Humidity;BMP_temperature;BMP_pressure;BME280_temperature;BME280_humidity;BME280_pressure;Samples;Min_cycle;Max_cycle;Signal;HPM_P1;HPM_P2
2023/10/07 00:00:52;;;;;;;1.20;1.20;;;8.70;68.60;7.80;96840.00;;;;5054045;28;20180;-62
2023/10/07 00:03:20;;;;;;;2.57;1.77;;;8.70;68.80;7.80;96845.00;;;;5053336;28;20675;-61
2023/10/07 00:05:50;;;;;;;1.00;1.00;;;8.60;68.80;7.90;96838.00;;;;5052203;28;20262;-61
2023/10/07 00:08:19;;;;;;;2.50;1.33;;;8.70;68.90;7.80;96847.00;;;;5053679;28;20678;-62
2023/10/07 00:10:49;;;;;;;1.80;1.57;;;8.70;68.70;8.00;96839.00;;;;5053226;28;20192;-62
2023/10/07 00:13:20;;;;;;;3.23;1.50;;;8.70;68.60;7.90;96848.00;;;;5053326;28;20198;-61
2023/10/07 00:15:50;;;;;;;1.07;1.07;;;8.70;68.20;7.80;96849.00;;;;5053227;28;20556;-61
2023/10/07 00:18:18;;;;;;;1.77;1.67;;;8.60;68.00;7.80;96845.00;;;;5053404;28;20203;-61
2023/10/07 00:20:52;;;;;;;1.47;1.37;;;8.60;68.80;7.90;96847.00;;;;5053349;28;20184;-61
2023/10/07 00:23:21;;;;;;;1.43;1.33;;;8.70;68.30;7.80;96837.00;;;;5053621;28;20172;-62
2023/10/07 00:25:51;;;;;;;1.90;1.80;;;8.70;68.50;7.80;96845.00;;;;5053393;28;20211;-62
2023/10/07 00:28:24;;;;;;;1.20;1.20;;;8.60;68.70;7.80;96853.00;;;;5053164;28;20200;-62
2023/10/07 00:30:55;;;;;;;1.10;1.10;;;8.50;67.70;7.60;96839.00;;;;5053177;28;20176;-62
2023/10/07 00:33:23;;;;;;;1.43;1.33;;;8.40;67.30;7.60;96842.00;;;;5053545;28;20267;-61
2023/10/07 00:35:53;;;;;;;0.90;0.90;;;8.40;67.90;7.60;96847.00;;;;5053350;28;20185;-61
2023/10/07 00:38:22;;;;;;;2.00;1.90;;;8.50;67.70;7.60;96849.00;;;;5053646;28;20263;-61
2023/10/07 00:40:56;;;;;;;1.00;1.00;;;8.40;68.70;7.50;96849.00;;;;5052943;28;20192;-61
2023/10/07 00:43:30;;;;;;;1.93;1.23;;;8.40;68.50;7.40;96851.00;;;;5051871;28;20192;-61
2023/10/07 00:46:10;;;;;;;1.13;1.13;;;8.30;67.60;7.30;96840.00;;;;5053307;28;20172;-62
2023/10/07 00:48:46;;;;;;;1.83;1.73;;;8.20;67.60;7.30;96832.00;;;;5053766;28;20629;-61
2023/10/07 00:51:17;;;;;;;1.10;1.10;;;8.20;67.30;7.30;96826.00;;;;5052929;28;20211;-61
2023/10/07 00:53:53;;;;;;;1.93;1.83;;;8.10;67.40;7.40;96808.00;;;;5053247;28;20180;-61
2023/10/07 00:56:27;;;;;;;1.13;1.13;;;8.10;67.50;7.40;96829.00;;;;5053308;28;20695;-61
2023/10/07 00:58:55;;;;;;;2.43;2.30;;;8.10;67.60;7.40;96829.00;;;;5053547;28;20176;-61
2023/10/07 01:01:23;;;;;;;2.30;2.13;;;8.20;67.60;7.40;96825.00;;;;5053006;28;20216;-61
2023/10/07 01:03:50;;;;;;;1.20;1.17;;;8.30;66.90;7.40;96822.00;;;;5055663;28;20191;-61
2023/10/07 01:06:25;;;;;;;1.63;1.53;;;8.10;66.40;7.30;96828.00;;;;5055225;28;20193;-61
2023/10/07 01:08:58;;;;;;;1.33;0.93;;;8.10;66.90;7.20;96812.00;;;;5056789;28;20184;-61
2023/10/07 01:11:30;;;;;;;1.17;1.17;;;8.00;66.70;7.20;96819.00;;;;5056495;28;20290;-61
2023/10/07 01:14:00;;;;;;;1.73;1.50;;;8.00;66.90;7.00;96802.00;;;;5056580;28;20208;-62
2023/10/07 01:16:40;;;;;;;2.63;2.03;;;7.90;67.10;7.00;96805.00;;;;5056233;28;20211;-61
2023/10/07 01:19:29;;;;;;;2.60;1.93;;;7.90;67.50;7.00;96798.00;;;;5056576;28;20263;-61
2023/10/07 01:22:08;;;;;;;1.20;1.20;;;7.90;67.80;7.00;96798.00;;;;5056126;28;20219;-61
2023/10/07 01:24:49;;;;;;;1.30;1.30;;;7.70;68.20;7.00;96792.00;;;;5056580;28;20525;-61
2023/10/07 01:27:21;;;;;;;1.77;1.67;;;7.70;68.10;7.10;96792.00;;;;5056250;28;20531;-61
2023/10/07 01:29:50;;;;;;;1.93;1.83;;;7.80;68.10;7.10;96788.00;;;;5056087;28;20230;-61
2023/10/07 01:32:19;;;;;;;1.80;1.70;;;7.80;67.90;7.10;96792.00;;;;5055972;28;20290;-61
2023/10/07 01:34:52;;;;;;;1.57;1.47;;;7.80;68.40;7.10;96790.00;;;;5055841;28;20744;-61
2023/10/07 01:37:21;;;;;;;0.80;0.80;;;7.90;68.70;7.00;96767.00;;;;5056039;28;20593;-61
2023/10/07 01:39:52;;;;;;;1.67;1.57;;;7.90;68.60;6.80;96778.00;;;;5056146;28;20192;-62
2023/10/07 01:42:26;;;;;;;1.17;1.17;;;7.70;67.90;6.90;96772.00;;;;5055926;28;20251;-61
2023/10/07 01:45:08;;;;;;;1.27;1.17;;;7.60;67.40;6.80;96783.00;;;;5055895;28;20183;-62
2023/10/07 01:47:36;;;;;;;2.23;1.57;;;7.60;67.90;6.80;96777.00;;;;5056011;28;20632;-62
2023/10/07 01:50:11;;;;;;;4.20;1.73;;;7.60;68.10;6.70;96783.00;;;;5055553;28;20652;-61
2023/10/07 01:52:39;;;;;;;1.87;1.77;;;7.60;67.70;6.50;96780.00;;;;5055462;28;20208;-61
2023/10/07 01:55:10;;;;;;;2.13;1.97;;;7.40;68.00;6.50;96786.00;;;;5055975;28;20188;-61
2023/10/07 01:57:39;;;;;;;1.07;1.07;;;7.30;68.60;6.40;96786.00;;;;5055837;28;20181;-61
2023/10/07 02:00:11;;;;;;;1.00;1.00;;;7.20;69.30;6.30;96793.00;;;;5055318;28;20192;-61
2023/10/07 02:02:48;;;;;;;3.70;1.27;;;;;6.40;96790.00;;;;5055431;28;20250;-61
2023/10/07 02:05:16;;;;;;;1.43;1.33;;;7.20;69.40;6.50;96763.00;;;;5055720;28;20204;-61
2023/10/07 02:07:46;;;;;;;1.03;1.03;;;7.30;70.40;6.50;96793.00;;;;5055396;28;20197;-61
2023/10/07 02:10:23;;;;;;;3.07;2.77;;;7.40;70.70;6.30;96794.00;;;;5055392;28;20309;-61
2023/10/07 02:12:54;;;;;;;0.77;0.77;;;7.20;72.10;6.30;96795.00;;;;5055324;28;20230;-61
2023/10/07 02:15:20;;;;;;;0.70;0.70;;;7.20;72.70;6.40;96794.00;;;;5054598;28;20191;-61
2023/10/07 02:17:48;;;;;;;0.97;0.97;;;7.20;74.60;6.50;96794.00;;;;5054914;28;20710;-61
2023/10/07 02:20:27;;;;;;;1.70;1.60;;;;;6.60;96789.00;;;;5056368;28;20276;-61
2023/10/07 02:22:54;;;;;;;2.00;1.77;;;7.40;69.50;6.50;96789.00;;;;5055154;28;20249;-60
2023/10/07 02:25:27;;;;;;;1.53;1.43;;;7.40;70.60;6.50;96784.00;;;;5054664;28;20190;-61
2023/10/07 02:27:54;;;;;;;1.80;1.70;;;7.30;70.80;6.50;96788.00;;;;5054799;28;20180;-61
2023/10/07 02:30:21;;;;;;;0.83;0.83;;;7.40;71.10;6.50;96783.00;;;;5055005;28;20192;-61
2023/10/07 02:32:48;;;;;;;0.80;0.80;;;7.40;70.90;6.50;96791.00;;;;5054511;28;20226;-61
2023/10/07 02:35:19;;;;;;;1.60;1.50;;;7.30;70.60;6.40;96800.00;;;;5055022;28;20548;-61
2023/10/07 02:37:49;;;;;;;1.53;1.43;;;7.20;71.10;6.40;96803.00;;;;5054900;28;20254;-61
2023/10/07 02:40:21;;;;;;;3.37;2.57;;;7.20;71.00;6.40;96791.00;;;;5054360;28;20191;-61
2023/10/07 02:42:51;;;;;;;1.30;1.30;;;7.30;70.60;6.40;96807.00;;;;5054543;28;20550;-61
2023/10/07 02:45:28;;;;;;;1.20;1.20;;;7.30;70.90;6.40;96805.00;;;;5054343;28;20678;-60
2023/10/07 02:48:00;;;;;;;2.13;2.03;;;7.30;70.80;6.30;96801.00;;;;5054344;28;20176;-60
2023/10/07 02:50:31;;;;;;;2.07;1.93;;;7.30;70.40;6.00;96798.00;;;;5054574;28;20189;-60
2023/10/07 02:53:01;;;;;;;2.27;2.07;;;7.00;69.80;6.00;96805.00;;;;5054240;28;20219;-60
2023/10/07 02:55:46;;;;;;;1.40;1.30;;;6.90;70.10;6.00;96804.00;;;;5054313;28;20202;-61
2023/10/07 02:58:26;;;;;;;1.50;1.37;;;6.90;70.00;6.10;96801.00;;;;5054627;28;20232;-61
2023/10/07 03:01:10;;;;;;;1.50;1.47;;;6.90;69.50;6.00;96811.00;;;;5054848;28;20183;-61
2023/10/07 03:03:40;;;;;;;1.30;1.30;;;6.90;69.30;6.00;96802.00;;;;5054302;28;20237;-60
2023/10/07 03:06:08;;;;;;;2.13;2.03;;;6.80;69.30;6.00;96822.00;;;;5054309;28;20195;-61
2023/10/07 03:08:50;;;;;;;1.40;1.30;;;6.80;69.50;6.00;96813.00;;;;5053945;28;20572;-61
2023/10/07 03:11:24;;;;;;;2.00;1.30;;;6.90;69.50;6.10;96825.00;;;;5054189;28;20215;-62
2023/10/07 03:13:57;;;;;;;1.30;1.30;;;6.90;69.60;6.10;96819.00;;;;5054354;28;20187;-61
2023/10/07 03:16:35;;;;;;;1.37;1.33;;;6.90;69.50;6.00;96816.00;;;;5054119;28;20262;-61
2023/10/07 03:19:19;;;;;;;0.93;0.93;;;6.90;69.40;6.00;96815.00;;;;5053771;28;20230;-60
2023/10/07 03:21:57;;;;;;;6.70;1.00;;;6.90;70.00;6.00;96813.00;;;;5054159;28;20209;-61
2023/10/07 03:24:41;;;;;;;1.03;1.03;;;6.90;68.70;5.90;96803.00;;;;5054194;28;20253;-61
2023/10/07 03:27:20;;;;;;;1.70;1.60;;;6.70;67.90;6.00;96799.00;;;;5053885;28;20517;-61
2023/10/07 03:30:01;;;;;;;1.73;1.63;;;6.80;68.80;6.00;96805.00;;;;5052587;28;20181;-61
2023/10/07 03:32:48;;;;;;;3.43;2.27;;;6.80;68.20;6.00;96789.00;;;;5053593;28;20208;-61
2023/10/07 03:35:35;;;;;;;1.57;1.47;;;6.80;68.20;5.90;96792.00;;;;5053683;28;20654;-60
2023/10/07 03:38:08;;;;;;;1.13;1.13;;;6.80;68.10;5.70;96790.00;;;;5053785;28;20182;-60
2023/10/07 03:40:38;;;;;;;1.50;1.33;;;6.70;68.00;5.80;96788.00;;;;5053588;28;20257;-61
2023/10/07 03:43:08;;;;;;;1.50;1.40;;;6.60;68.60;5.80;96807.00;;;;5053389;28;20215;-61
2023/10/07 03:45:40;;;;;;;1.63;1.53;;;6.60;68.50;5.90;96792.00;;;;5053786;28;20237;-61
2023/10/07 03:48:23;;;;;;;1.00;1.00;;;6.70;69.30;5.70;96823.00;;;;5053632;28;20179;-60
2023/10/07 03:51:04;;;;;;;1.27;1.27;;;6.60;68.80;5.80;96828.00;;;;5053605;28;20227;-61
2023/10/07 03:53:33;;;;;;;3.13;1.50;;;6.60;69.50;5.70;96833.00;;;;5053919;28;20557;-61
2023/10/07 03:56:06;;;;;;;1.43;1.43;;;6.60;68.50;5.70;96823.00;;;;5053532;28;20195;-61
2023/10/07 03:58:36;;;;;;;1.53;1.53;;;6.60;68.90;5.70;96811.00;;;;5053828;28;20234;-61
2023/10/07 04:01:11;;;;;;;1.77;1.67;;;6.60;69.20;5.70;96819.00;;;;5053585;28;20542;-61
2023/10/07 04:03:40;;;;;;;1.10;1.10;;;6.60;69.90;5.60;96800.00;;;;5053850;28;20229;-61
2023/10/07 04:06:09;;;;;;;0.93;0.93;;;6.60;69.40;5.40;96810.00;;;;5053047;28;20278;-61
2023/10/07 04:08:39;;;;;;;1.40;1.40;;;6.30;68.00;5.30;96808.00;;;;5053283;28;20254;-61
2023/10/07 04:11:16;;;;;;;1.10;1.10;;;6.20;69.40;5.40;96800.00;;;;5053355;28;20204;-61
2023/10/07 04:13:44;;;;;;;1.80;1.47;;;6.30;69.90;5.30;96794.00;;;;5053295;28;20176;-60
2023/10/07 04:16:22;;;;;;;0.93;0.93;;;6.30;69.50;5.40;96804.00;;;;5053255;28;20607;-60
2023/10/07 04:18:50;;;;;;;0.80;0.80;;;6.20;72.00;5.40;96809.00;;;;5053133;28;20655;-60
2023/10/07 04:21:18;;;;;;;1.23;1.23;;;;;5.60;96805.00;;;;5052834;28;20286;-60
2023/10/07 04:23:45;;;;;;;1.77;1.67;;;6.40;69.30;5.50;96805.00;;;;5052935;28;20231;-61
2023/10/07 04:26:19;;;;;;;2.20;2.00;;;6.40;69.30;5.50;96807.00;;;;5052934;28;20192;-64
2023/10/07 04:28:48;;;;;;;1.20;1.10;;;6.40;69.00;5.30;96796.00;;;;5052851;28;20547;-60
2023/10/07 04:31:17;;;;;;;3.07;1.37;;;6.30;68.20;5.30;96798.00;;;;5053187;28;20221;-61
2023/10/07 04:33:53;;;;;;;1.70;1.60;;;6.30;68.60;5.30;96785.00;;;;5052930;28;20492;-61
2023/10/07 04:36:33;;;;;;;1.80;1.70;;;6.20;69.00;5.30;96782.00;;;;5052848;28;20172;-61
2023/10/07 04:39:08;;;;;;;2.50;1.37;;;6.20;69.30;5.30;96783.00;;;;5056623;28;20172;-60
2023/10/07 04:41:36;;;;;;;1.23;1.20;;;6.20;68.90;5.20;96791.00;;;;5056798;28;20679;-60
2023/10/07 04:46:55;;;;;;;1.10;1.10;;;;;5.30;96806.00;;;;5053966;28;20308;-61
2023/10/07 04:49:28;;;;;;;6.07;2.83;;;;;5.30;96799.00;;;;5056853;28;20212;-61
2023/10/07 04:51:58;;;;;;;1.63;1.57;;;;;5.30;96801.00;;;;5056532;28;20218;-61
2023/10/07 04:54:25;;;;;;;2.47;1.67;;;;;5.40;96810.00;;;;5056509;28;20631;-61
2023/10/07 04:57:00;;;;;;;4.10;1.73;;;;;5.40;96798.00;;;;5056681;28;20347;-61
2023/10/07 04:59:27;;;;;;;1.87;1.73;;;;;5.50;96807.00;;;;5056679;28;20191;-61
2023/10/07 05:02:09;;;;;;;1.30;1.23;;;;;5.80;96815.00;;;;5056474;28;20212;-60
2023/10/07 05:04:37;;;;;;;1.87;1.43;;;;;6.00;96803.00;;;;5056214;28;20187;-61
2023/10/07 05:07:04;;;;;;;1.37;1.37;;;;;6.20;96802.00;;;;5056430;28;20286;-61
2023/10/07 05:09:32;;;;;;;1.20;1.20;;;;;6.10;96813.00;;;;5056473;28;20192;-60
2023/10/07 05:12:01;;;;;;;6.00;4.20;;;;;6.10;96821.00;;;;5056060;28;20223;-61
2023/10/07 05:14:28;;;;;;;3.60;3.27;;;;;6.00;96824.00;;;;5056144;28;20192;-60
2023/10/07 05:16:58;;;;;;;2.00;1.87;;;;;6.00;96838.00;;;;5056042;28;20199;-61
2023/10/07 05:19:27;;;;;;;0.90;0.90;;;;;5.80;96839.00;;;;5054946;28;20201;-60
2023/10/07 05:22:12;;;;;;;1.07;1.07;;;;;5.80;96840.00;;;;5055952;28;20220;-64
2023/10/07 05:24:41;;;;;;;1.23;1.23;;;;;5.80;96829.00;;;;5056152;28;20193;-60
2023/10/07 05:27:08;;;;;;;4.10;1.83;;;;;5.80;96834.00;;;;5054987;28;20200;-61
2023/10/07 05:29:35;;;;;;;3.37;1.83;;;;;5.70;96837.00;;;;5055800;28;20242;-61
2023/10/07 05:32:06;;;;;;;1.53;1.47;;;;;5.60;96831.00;;;;5055799;28;20227;-60
2023/10/07 05:34:33;;;;;;;1.17;1.17;;;;;5.50;96843.00;;;;5055944;28;20199;-60
2023/10/07 05:37:04;;;;;;;4.23;1.27;;;;;5.40;96841.00;;;;5055718;28;20192;-60
2023/10/07 05:39:32;;;;;;;3.83;2.27;;;;;5.40;96833.00;;;;5055820;28;20230;-61
2023/10/07 05:42:00;;;;;;;1.63;1.53;;;;;5.40;96847.00;;;;5055599;28;20239;-61
2023/10/07 05:44:28;;;;;;;3.30;3.00;;;;;5.40;96836.00;;;;5055384;28;20306;-60
2023/10/07 05:46:55;;;;;;;1.57;1.47;;;;;5.40;96832.00;;;;5055799;28;20230;-61
2023/10/07 05:49:24;;;;;;;1.67;1.57;;;;;5.40;96837.00;;;;5055783;28;20197;-61
2023/10/07 05:51:53;;;;;;;1.73;1.63;;;;;5.30;96835.00;;;;5054049;28;20749;-60
2023/10/07 05:54:21;;;;;;;1.83;1.73;;;;;5.30;96847.00;;;;5055547;28;20278;-60
2023/10/07 05:56:48;;;;;;;4.90;1.90;;;;;5.40;96834.00;;;;5055469;28;20193;-61
2023/10/07 05:59:15;;;;;;;0.70;0.70;;;;;5.30;96835.00;;;;5055394;28;20267;-60
2023/10/07 06:01:43;;;;;;;1.40;1.30;;;;;5.40;96833.00;;;;5053727;28;20805;-60
2023/10/07 06:04:11;;;;;;;2.10;2.00;;;;;5.40;96832.00;;;;5055253;28;20693;-60
2023/10/07 06:06:42;;;;;;;1.00;1.00;;;;;5.50;96841.00;;;;5055031;28;20282;-60
2023/10/07 06:09:13;;;;;;;1.73;1.63;;;;;5.40;96831.00;;;;5055754;28;20176;-61
2023/10/07 06:11:42;;;;;;;1.47;1.37;;;;;5.40;96842.00;;;;5055144;28;20220;-60
2023/10/07 06:14:11;;;;;;;2.10;2.00;;;;;5.40;96823.00;;;;5055233;28;20192;-61
2023/10/07 06:16:40;;;;;;;0.80;0.80;;;;;5.50;96837.00;;;;5055182;28;20284;-61
2023/10/07 06:19:09;;;;;;;1.60;1.43;;;;;5.60;96824.00;;;;5055014;28;20227;-60
2023/10/07 06:21:36;;;;;;;1.23;1.23;;;;;5.80;96836.00;;;;5054785;28;20216;-60
2023/10/07 06:24:06;;;;;;;1.00;1.00;;;;;5.80;96832.00;;;;5054613;28;20710;-60
2023/10/07 06:26:36;;;;;;;1.60;1.30;;;;;5.70;96833.00;;;;5055175;28;20195;-60
2023/10/07 06:29:07;;;;;;;1.37;1.37;;;;;5.70;96840.00;;;;5054770;28;20194;-60
2023/10/07 06:31:36;;;;;;;1.33;1.30;;;;;5.80;96838.00;;;;5054752;28;20226;-60
2023/10/07 06:34:11;;;;;;;0.87;0.87;;;;;6.00;96836.00;;;;5054789;28;20608;-60
2023/10/07 06:36:40;;;;;;;1.03;1.03;;;;;6.00;96842.00;;;;5054861;28;20583;-60
2023/10/07 06:39:09;;;;;;;1.37;1.27;;;;;6.10;96824.00;;;;5054474;28;20201;-60
2023/10/07 06:41:38;;;;;;;1.17;1.17;;;;;6.40;96828.00;;;;5054217;28;20264;-60
2023/10/07 06:44:08;;;;;;;1.40;1.40;;;;;6.50;96823.00;;;;5054363;28;20685;-60
2023/10/07 06:46:41;;;;;;;1.33;1.23;;;;;6.70;96833.00;;;;5054468;28;20201;-61
2023/10/07 06:49:16;;;;;;;3.00;2.37;;;;;6.80;96846.00;;;;5054225;28;20183;-60
2023/10/07 06:51:44;;;;;;;1.07;1.07;;;;;6.90;96858.00;;;;5054606;28;20217;-60
2023/10/07 06:54:14;;;;;;;1.10;1.10;;;;;7.00;96862.00;;;;5054621;28;20186;-60
2023/10/07 06:56:41;;;;;;;5.80;2.70;;;;;7.10;96870.00;;;;5054531;28;20278;-60
2023/10/07 06:59:12;;;;;;;1.00;1.00;;;;;7.00;96865.00;;;;5054386;28;20282;-60
2023/10/07 07:01:53;;;;;;;1.17;1.17;;;;;7.00;96873.00;;;;5053595;28;20222;-60
2023/10/07 07:04:22;;;;;;;2.40;1.47;;;;;7.10;96884.00;;;;5054286;28;20227;-61
2023/10/07 07:07:10;;;;;;;1.50;1.40;;;;;7.20;96873.00;;;;5053836;28;20248;-61
2023/10/07 07:09:58;;;;;;;1.50;1.43;;;;;7.30;96886.00;;;;5054038;28;20606;-61
2023/10/07 07:12:26;;;;;;;1.17;1.17;;;;;7.30;96877.00;;;;5052504;28;20222;-61
2023/10/07 07:14:59;;;;;;;0.87;0.87;;;;;7.50;96876.00;;;;5053953;28;20265;-61
2023/10/07 07:17:30;;;;;;;1.13;1.13;;;;;7.60;96893.00;;;;5054289;28;20211;-61
2023/10/07 07:20:29;;;;;;;1.23;1.23;;;;;7.90;96891.00;;;;5052389;28;20195;-61
2023/10/07 07:23:03;;;;;;;1.60;1.50;;;;;8.00;96879.00;;;;5053325;28;20297;-61
2023/10/07 07:25:39;;;;;;;2.20;1.90;;;;;8.10;96882.00;;;;5054470;28;20505;-61
2023/10/07 07:28:07;;;;;;;0.80;0.80;;;;;8.20;96883.00;;;;5054612;28;20580;-61
2023/10/07 07:30:35;;;;;;;1.80;1.37;;;;;8.20;96879.00;;;;5053528;28;20194;-61
2023/10/07 07:33:07;;;;;;;1.30;1.30;;;;;8.00;96876.00;;;;5053727;28;20212;-61
2023/10/07 07:35:38;;;;;;;1.47;1.37;;;;;7.80;96874.00;;;;5053813;28;20242;-61
2023/10/07 07:38:22;;;;;;;1.67;1.57;;;;;7.80;96882.00;;;;5053441;28;20184;-61
2023/10/07 07:40:52;;;;;;;1.97;1.87;;;;;8.00;96886.00;;;;5053559;28;20563;-61
2023/10/07 07:43:20;;;;;;;1.00;1.00;;;;;8.00;96887.00;;;;5053497;28;20238;-62
2023/10/07 07:45:56;;;;;;;1.20;1.20;;;;;8.20;96887.00;;;;5053564;28;20614;-61
2023/10/07 07:48:25;;;;;;;1.00;1.00;;;;;8.50;96882.00;;;;5053345;28;20184;-61
2023/10/07 07:50:54;;;;;;;0.80;0.80;;;9.30;68.00;8.80;96888.00;;;;5053034;28;20211;-61
2023/10/07 07:53:22;;;;;;;1.70;1.60;;;9.30;68.40;8.80;96880.00;;;;5053143;28;20192;-61
2023/10/07 07:55:56;;;;;;;1.00;1.00;;;9.40;67.70;8.70;96869.00;;;;5053182;28;20238;-61
2023/10/07 07:58:24;;;;;;;1.53;1.47;;;9.40;68.60;9.10;96882.00;;;;5053437;28;20176;-61
2023/10/07 08:00:58;;;;;;;0.93;0.90;;;9.60;67.70;9.10;96879.00;;;;5052907;28;20199;-61
2023/10/07 08:03:25;;;;;;;1.07;1.07;;;9.70;67.40;9.10;96881.00;;;;5053809;28;20665;-61
2023/10/07 08:05:53;;;;;;;0.70;0.70;;;;;9.40;96890.00;;;;5053056;28;20195;-61
2023/10/07 08:08:24;;;;;;;1.40;1.30;;;;;9.40;96902.00;;;;5053003;28;20245;-61
2023/10/07 08:10:54;;;;;;;1.20;1.20;;;;;9.50;96905.00;;;;5053088;28;20263;-61
2023/10/07 08:13:23;;;;;;;2.47;2.20;;;;;9.70;96910.00;;;;5056137;28;20191;-62
2023/10/07 08:15:52;;;;;;;1.20;1.10;;;;;9.90;96892.00;;;;5057502;28;20200;-61
2023/10/07 08:18:22;;;;;;;1.60;1.50;;;;;10.00;96884.00;;;;5057081;28;20267;-61
2023/10/07 08:20:56;;;;;;;6.13;1.30;;;;;10.10;96893.00;;;;5057017;28;20275;-62
2023/10/07 08:23:28;;;;;;;1.33;1.27;;;;;10.20;96889.00;;;;5057143;28;20200;-59
2023/10/07 08:26:08;;;;;;;2.33;1.83;;;10.90;64.10;10.30;96892.00;;;;5057532;28;20524;-61
2023/10/07 08:28:42;;;;;;;4.43;1.63;;;10.90;64.70;10.30;96880.00;;;;5057792;28;20188;-61
2023/10/07 08:31:17;;;;;;;1.40;1.30;;;10.90;62.80;10.40;96883.00;;;;5055721;28;20298;-61
2023/10/07 08:33:47;;;;;;;1.30;1.30;;;11.00;63.20;10.60;96891.00;;;;5057308;28;20259;-61
2023/10/07 08:36:15;;;;;;;2.47;1.63;;;11.20;63.80;10.80;96887.00;;;;5057177;28;20263;-61
2023/10/07 08:38:45;;;;;;;1.40;1.30;;;;;11.20;96898.00;;;;5056989;28;20184;-60
2023/10/07 08:41:17;;;;;;;1.67;1.57;;;11.60;62.00;11.20;96898.00;;;;5056706;28;20220;-61
2023/10/07 08:43:46;;;;;;;1.57;1.47;;;11.80;60.90;11.30;96891.00;;;;5056821;28;20269;-61
2023/10/07 08:46:19;;;;;;;1.17;1.17;;;11.90;61.20;11.50;96892.00;;;;5056932;28;20184;-61
2023/10/07 08:48:56;;;;;;;1.83;1.73;;;12.20;59.70;11.80;96893.00;;;;5056994;28;20188;-61
2023/10/07 08:51:24;;;;;;;2.13;1.93;;;12.40;59.00;12.00;96896.00;;;;5056765;28;20207;-61
2023/10/07 08:53:57;;;;;;;1.77;1.67;;;12.60;59.10;12.20;96892.00;;;;5056613;28;20723;-61
2023/10/07 08:56:30;;;;;;;1.27;1.23;;;12.70;59.90;12.50;96894.00;;;;5056545;28;20204;-62
2023/10/07 08:59:00;;;;;;;1.80;1.70;;;13.00;65.80;12.50;96897.00;;;;5055960;28;20196;-60
2023/10/07 09:01:28;;;;;;;1.80;1.70;;;13.00;60.00;12.60;96888.00;;;;5057612;28;20215;-60
2023/10/07 09:04:00;;;;;;;1.33;1.27;;;13.20;61.00;12.70;96889.00;;;;5056348;28;20222;-60
2023/10/07 09:06:32;;;;;;;1.43;1.33;;;13.30;60.00;12.90;96890.00;;;;5056461;28;20267;-60
2023/10/07 09:09:06;;;;;;;1.90;1.47;;;13.40;60.40;12.80;96889.00;;;;5056768;28;20276;-61
2023/10/07 09:11:37;;;;;;;0.90;0.90;;;13.30;61.90;12.80;96889.00;;;;5056334;28;20223;-60
2023/10/07 09:14:10;;;;;;;2.17;1.93;;;13.30;62.90;13.00;96894.00;;;;5056351;28;20195;-60
2023/10/07 09:16:42;;;;;;;2.37;2.17;;;13.50;63.60;13.20;96883.00;;;;5056056;28;20202;-60
2023/10/07 09:19:19;;;;;;;1.10;1.10;;;13.60;68.00;13.10;96907.00;;;;5056487;28;20195;-61
2023/10/07 09:21:56;;;;;;;10.13;2.33;;;13.60;67.70;12.90;96919.00;;;;5056393;28;20736;-61
2023/10/07 09:24:25;;;;;;;1.53;1.43;;;13.50;70.00;12.70;96922.00;;;;5055552;28;20199;-61
2023/10/07 09:26:58;;;;;;;3.73;2.57;;;13.40;72.00;12.90;96918.00;;;;5055823;28;20567;-61
2023/10/07 09:29:26;;;;;;;1.27;1.20;;;13.40;73.90;13.00;96912.00;;;;5056201;28;20238;-61
2023/10/07 09:31:59;;;;;;;1.63;1.50;;;13.80;60.30;13.20;96907.00;;;;5055636;28;20291;-61
2023/10/07 09:34:41;;;;;;;1.37;1.33;;;13.70;61.00;13.40;96914.00;;;;5056138;28;20189;-61
2023/10/07 09:37:12;;;;;;;1.73;1.63;;;13.90;61.20;13.60;96914.00;;;;5056483;28;20255;-62
2023/10/07 09:39:45;;;;;;;2.00;1.90;;;14.10;61.10;13.70;96917.00;;;;5056066;28;20283;-61
2023/10/07 09:42:26;;;;;;;1.13;1.13;;;14.20;60.90;13.70;96907.00;;;;5055700;28;20219;-66
2023/10/07 09:45:07;;;;;;;1.53;1.23;;;14.30;60.40;13.90;96917.00;;;;5054440;28;20200;-62
2023/10/07 09:47:37;;;;;;;1.60;1.50;;;14.40;60.60;14.00;96921.00;;;;5055887;28;20172;-62
2023/10/07 09:50:10;;;;;;;1.20;1.10;;;14.40;60.50;14.10;96920.00;;;;5055860;28;20580;-62
2023/10/07 09:52:41;;;;;;;1.23;1.23;;;14.60;60.40;14.20;96911.00;;;;5055704;28;20814;-62
2023/10/07 09:55:47;;;;;;;1.50;1.40;;;14.70;59.10;14.50;96923.00;;;;5054322;28;20196;-62
2023/10/07 09:58:47;;;;;;;2.70;2.50;;;15.00;64.30;14.70;96915.00;;;;5055870;28;20577;-61
2023/10/07 10:01:36;;;;;;;7.90;2.40;;;15.40;57.80;15.10;96910.00;;;;5055645;28;20273;-62
2023/10/07 10:04:36;;;;;;;2.20;1.20;;;15.80;56.50;15.60;96912.00;;;;5056067;28;20697;-62
2023/10/07 10:07:41;;;;;;;1.63;1.53;;;16.20;54.30;16.10;96915.00;;;;5055656;28;20650;-62
2023/10/07 10:10:13;;;;;;;0.97;0.97;;;;;16.40;96913.00;;;;5054051;28;20202;-62
2023/10/07 10:12:56;;;;;;;2.30;1.47;;;16.70;49.00;16.50;96926.00;;;;5054068;28;20216;-62
2023/10/07 10:15:52;;;;;;;1.30;1.20;;;;;16.90;96925.00;;;;5055191;28;20215;-62
2023/10/07 10:18:35;;;;;;;1.53;1.43;;;;;17.20;96922.00;;;;5055060;28;20573;-62
2023/10/07 10:21:05;;;;;;;0.87;0.87;;;;;17.30;96916.00;;;;5055199;28;20176;-61
2023/10/07 10:23:34;;;;;;;0.80;0.80;;;;;17.40;96913.00;;;;5056505;28;20192;-61
2023/10/07 10:26:14;;;;;;;4.43;1.63;;;17.80;43.40;17.50;96918.00;;;;5057047;28;20239;-61
2023/10/07 10:28:43;;;;;;;2.27;1.43;;;17.80;44.70;17.60;96922.00;;;;5056048;28;20176;-61
2023/10/07 10:31:22;;;;;;;1.50;1.23;;;18.00;44.00;17.60;96920.00;;;;5053760;28;20216;-62
2023/10/07 10:33:50;;;;;;;1.10;1.10;;;18.00;43.10;17.60;96917.00;;;;5054897;28;20194;-62
2023/10/07 10:36:22;;;;;;;1.60;1.50;;;18.10;44.30;17.80;96912.00;;;;5054165;28;20192;-62
2023/10/07 10:38:49;;;;;;;1.77;1.67;;;18.20;48.70;18.10;96907.00;;;;5054810;28;20226;-63
2023/10/07 10:41:28;;;;;;;1.87;1.17;;;18.40;52.90;18.30;96904.00;;;;5054656;28;20579;-62
2023/10/07 10:44:10;;;;;;;1.30;1.27;;;18.60;54.50;18.50;96919.00;;;;5054702;28;20221;-62
2023/10/07 10:46:47;;;;;;;1.83;1.73;;;18.80;72.10;18.30;96906.00;;;;5053131;28;20196;-61
2023/10/07 10:49:17;;;;;;;0.70;0.70;;;18.70;69.50;18.30;96913.00;;;;5054952;28;20176;-62
2023/10/07 10:51:50;;;;;;;1.20;1.20;;;18.60;59.30;18.20;96908.00;;;;5054406;28;20675;-62
2023/10/07 10:54:19;;;;;;;1.50;1.40;;;18.70;54.30;18.30;96912.00;;;;5054819;28;20519;-62
2023/10/07 10:56:55;;;;;;;0.80;0.80;;;18.80;49.10;18.40;96910.00;;;;5054307;28;20198;-62
2023/10/07 10:59:34;;;;;;;0.80;0.80;;;18.90;46.50;18.70;96903.00;;;;5054464;28;20626;-62
2023/10/07 11:02:05;;;;;;;0.80;0.80;;;19.10;42.80;18.60;96900.00;;;;5053154;28;20687;-63
2023/10/07 11:04:33;;;;;;;0.80;0.80;;;19.10;41.20;18.70;96896.00;;;;5054497;28;20204;-62
2023/10/07 11:07:01;;;;;;;1.33;1.23;;;19.10;39.10;18.90;96895.00;;;;5054090;28;20543;-62
2023/10/07 11:09:35;;;;;;;1.80;1.43;;;19.30;37.20;18.90;96900.00;;;;5054675;28;20267;-62
2023/10/07 11:12:09;;;;;;;1.30;1.27;;;19.30;36.20;18.90;96899.00;;;;5054608;28;20218;-62
2023/10/07 11:14:39;;;;;;;1.43;1.33;;;19.30;36.80;19.20;96897.00;;;;5054830;28;20243;-61
2023/10/07 11:17:09;;;;;;;0.90;0.87;;;19.50;36.40;18.50;96895.00;;;;5054328;28;20196;-64
2023/10/07 11:19:44;;;;;;;1.23;1.07;;;19.10;37.90;18.70;96894.00;;;;5054000;28;20605;-62
2023/10/07 11:22:19;;;;;;;0.83;0.83;;;19.20;52.80;18.60;96893.00;;;;5053688;28;20614;-62
2023/10/07 11:24:49;;;;;;;1.00;1.00;;;19.20;57.50;18.80;96894.00;;;;5054043;28;20666;-62
2023/10/07 11:27:18;;;;;;;1.67;1.57;;;19.30;58.30;18.80;96891.00;;;;5053888;28;20184;-62
2023/10/07 11:29:45;;;;;;;1.80;1.47;;;19.40;56.40;18.80;96882.00;;;;5053662;28;20273;-61
2023/10/07 11:32:14;;;;;;;1.23;1.23;;;19.50;56.00;18.90;96890.00;;;;5054051;28;20216;-61
2023/10/07 11:34:43;;;;;;;1.93;1.50;;;19.40;54.30;18.70;96883.00;;;;5054056;28;20219;-62
2023/10/07 11:37:14;;;;;;;0.87;0.87;;;19.40;54.00;18.80;96886.00;;;;5053969;28;20192;-61
2023/10/07 11:39:45;;;;;;;0.90;0.90;;;19.30;54.10;18.80;96877.00;;;;5053458;28;20636;-62
2023/10/07 11:42:17;;;;;;;1.00;1.00;;;19.30;53.80;18.90;96874.00;;;;5053923;28;20212;-62
2023/10/07 11:44:52;;;;;;;0.83;0.83;;;19.50;55.10;19.00;96870.00;;;;5053531;28;20279;-62
2023/10/07 11:47:23;;;;;;;1.17;1.17;;;19.40;55.80;19.30;96874.00;;;;5053268;28;20190;-62
2023/10/07 11:49:51;;;;;;;1.37;1.27;;;19.50;56.30;19.40;96874.00;;;;5053419;28;20228;-62
2023/10/07 11:52:20;;;;;;;0.93;0.93;;;19.70;55.60;19.50;96884.00;;;;5053416;28;20772;-62
2023/10/07 11:54:48;;;;;;;1.17;1.07;;;19.90;58.40;19.30;96870.00;;;;5053517;28;20735;-62